PWSweather.com
Personal Weather Stations
Station Observations

PoschiavoCH

Lat: 46.31962499999999, Lon: 10.066551000000004

Elevation: 3517

Station Type: WH 1080

http://www.meteoposchiavo.com

High Low Average
Temperature 102.0°F38.9°C 61.0°F16.1°C 77.6°F25.3°C
Dew Point 69.2°F20.7°C 33.4°F0.8°C 56.1°F13.4°C
Winds 2.3 mph 3.7 kmh Calm Calm Calm SWCalm SW
Wind Gusts 3.5 mph5.6 kmh -- --
Humidity 95% 15% 56%
Pressure 26.90 in910.9 mb 26.71 in904.5 mb -
Precipitation 0.00 in0.0 mm - -
Hour Temp Dew Point Humidity Winds Wind Gusts Pressure Precip Precip Rate Daily Precip Total
12:00 AM 69.0°F20.6°C 66.3°F19.1°C 91% Calm Calm -- 26.89 in910.6 mb - 0.00 in0.0 mm 0.00 in0.0 mm
12:10 AM 77.0°F25.0°C 69.2°F20.7°C 77% Calm Calm -- 26.86 in909.6 mb - 0.00 in0.0 mm 0.00 in0.0 mm
12:15 AM 68.0°F20.0°C 63.3°F17.4°C 85% Calm Calm -- 26.90 in910.9 mb - 0.00 in0.0 mm 0.00 in0.0 mm
12:20 AM 68.0°F20.0°C 65.0°F18.3°C 90% Calm Calm -- 26.89 in910.6 mb - 0.00 in0.0 mm 0.00 in0.0 mm
12:25 AM 68.0°F20.0°C 65.0°F18.3°C 90% Calm Calm -- 26.89 in910.6 mb - 0.00 in0.0 mm 0.00 in0.0 mm
12:30 AM 69.0°F20.6°C 66.3°F19.1°C 91% Calm Calm -- 26.89 in910.6 mb - 0.00 in0.0 mm 0.00 in0.0 mm
12:35 AM 68.0°F20.0°C 65.3°F18.5°C 91% Calm Calm -- 26.90 in910.9 mb - 0.00 in0.0 mm 0.00 in0.0 mm
12:40 AM 68.0°F20.0°C 65.3°F18.5°C 91% Calm Calm -- 26.90 in910.9 mb - 0.00 in0.0 mm 0.00 in0.0 mm
12:45 AM 68.0°F20.0°C 65.3°F18.5°C 91% Calm Calm -- 26.90 in910.9 mb - 0.00 in0.0 mm 0.00 in0.0 mm
12:50 AM 68.0°F20.0°C 65.3°F18.5°C 91% Calm Calm -- 26.90 in910.9 mb - 0.00 in0.0 mm 0.00 in0.0 mm
12:55 AM 67.1°F19.5°C 64.4°F18.0°C 91% Calm Calm -- 26.89 in910.6 mb - 0.00 in0.0 mm 0.00 in0.0 mm
01:00 AM 67.0°F19.4°C 64.3°F17.9°C 91% Calm Calm -- 26.89 in910.6 mb - 0.00 in0.0 mm 0.00 in0.0 mm
01:10 AM 67.0°F19.4°C 64.9°F18.3°C 93% Calm Calm -- 26.89 in910.6 mb - 0.00 in0.0 mm 0.00 in0.0 mm
01:15 AM 67.0°F19.4°C 64.9°F18.3°C 93% Calm Calm -- 26.88 in910.3 mb - 0.00 in0.0 mm 0.00 in0.0 mm
01:20 AM 67.0°F19.4°C 64.9°F18.3°C 93% Calm Calm -- 26.88 in910.3 mb - 0.00 in0.0 mm 0.00 in0.0 mm
01:25 AM 67.0°F19.4°C 65.2°F18.4°C 94% Calm Calm -- 26.88 in910.3 mb - 0.00 in0.0 mm 0.00 in0.0 mm
01:30 AM 67.0°F19.4°C 64.9°F18.3°C 93% Calm Calm -- 26.89 in910.6 mb - 0.00 in0.0 mm 0.00 in0.0 mm
01:35 AM 66.8°F19.3°C 64.7°F18.2°C 93% Calm Calm -- 26.89 in910.6 mb - 0.00 in0.0 mm 0.00 in0.0 mm
01:40 AM 66.0°F18.9°C 64.2°F17.9°C 94% Calm Calm -- 26.88 in910.3 mb - 0.00 in0.0 mm 0.00 in0.0 mm
01:45 AM 66.0°F18.9°C 63.9°F17.7°C 93% Calm Calm -- 26.88 in910.3 mb - 0.00 in0.0 mm 0.00 in0.0 mm
01:50 AM 67.0°F19.4°C 64.9°F18.3°C 93% Calm Calm -- 26.88 in910.3 mb - 0.00 in0.0 mm 0.00 in0.0 mm
01:55 AM 66.0°F18.9°C 63.9°F17.7°C 93% Calm Calm -- 26.88 in910.3 mb - 0.00 in0.0 mm 0.00 in0.0 mm
02:00 AM 66.0°F18.9°C 64.2°F17.9°C 94% Calm Calm -- 26.88 in910.3 mb - 0.00 in0.0 mm 0.00 in0.0 mm
02:10 AM 66.0°F18.9°C 63.9°F17.7°C 93% Calm Calm -- 26.87 in909.9 mb - 0.00 in0.0 mm 0.00 in0.0 mm
02:15 AM 66.0°F18.9°C 63.9°F17.7°C 93% Calm Calm -- 26.88 in910.3 mb - 0.00 in0.0 mm 0.00 in0.0 mm
02:20 AM 65.0°F18.3°C 63.2°F17.3°C 94% Calm Calm -- 26.88 in910.3 mb - 0.00 in0.0 mm 0.00 in0.0 mm
02:25 AM 65.0°F18.3°C 63.5°F17.5°C 95% Calm Calm -- 26.87 in909.9 mb - 0.00 in0.0 mm 0.00 in0.0 mm
02:30 AM 65.0°F18.3°C 63.5°F17.5°C 95% Calm Calm -- 26.87 in909.9 mb - 0.00 in0.0 mm 0.00 in0.0 mm
02:35 AM 65.0°F18.3°C 62.9°F17.2°C 93% Calm Calm -- 26.87 in909.9 mb - 0.00 in0.0 mm 0.00 in0.0 mm
02:40 AM 65.0°F18.3°C 62.9°F17.2°C 93% Calm Calm -- 26.88 in910.3 mb - 0.00 in0.0 mm 0.00 in0.0 mm
02:45 AM 65.0°F18.3°C 63.2°F17.3°C 94% Calm Calm -- 26.87 in909.9 mb - 0.00 in0.0 mm 0.00 in0.0 mm
02:50 AM 65.0°F18.3°C 63.2°F17.3°C 94% Calm Calm -- 26.87 in909.9 mb - 0.00 in0.0 mm 0.00 in0.0 mm
02:55 AM 64.0°F17.8°C 62.2°F16.8°C 94% Calm Calm -- 26.87 in909.9 mb - 0.00 in0.0 mm 0.00 in0.0 mm
03:00 AM 64.0°F17.8°C 62.5°F16.9°C 95% Calm Calm -- 26.87 in909.9 mb - 0.00 in0.0 mm 0.00 in0.0 mm
03:10 AM 64.0°F17.8°C 62.5°F16.9°C 95% Calm Calm -- 26.87 in909.9 mb - 0.00 in0.0 mm 0.00 in0.0 mm
03:15 AM 64.0°F17.8°C 62.5°F16.9°C 95% Calm Calm -- 26.87 in909.9 mb - 0.00 in0.0 mm 0.00 in0.0 mm
03:20 AM 63.3°F17.4°C 61.5°F16.4°C 94% Calm Calm -- 26.87 in909.9 mb - 0.00 in0.0 mm 0.00 in0.0 mm
03:25 AM 63.0°F17.2°C 61.2°F16.2°C 94% Calm Calm -- 26.87 in909.9 mb - 0.00 in0.0 mm 0.00 in0.0 mm
03:30 AM 64.0°F17.8°C 62.2°F16.8°C 94% Calm Calm -- 26.87 in909.9 mb - 0.00 in0.0 mm 0.00 in0.0 mm
03:35 AM 63.0°F17.2°C 61.5°F16.4°C 95% Calm Calm -- 26.87 in909.9 mb - 0.00 in0.0 mm 0.00 in0.0 mm
03:40 AM 63.0°F17.2°C 61.5°F16.4°C 95% Calm Calm -- 26.87 in909.9 mb - 0.00 in0.0 mm 0.00 in0.0 mm
03:45 AM 63.0°F17.2°C 61.2°F16.2°C 94% Calm Calm -- 26.87 in909.9 mb - 0.00 in0.0 mm 0.00 in0.0 mm
03:50 AM 63.0°F17.2°C 61.2°F16.2°C 94% Calm Calm -- 26.88 in910.3 mb - 0.00 in0.0 mm 0.00 in0.0 mm
03:55 AM 63.0°F17.2°C 61.5°F16.4°C 95% Calm Calm -- 26.87 in909.9 mb - 0.00 in0.0 mm 0.00 in0.0 mm
04:00 AM 63.9°F17.7°C 62.4°F16.9°C 95% Calm Calm -- 26.87 in909.9 mb - 0.00 in0.0 mm 0.00 in0.0 mm
04:10 AM 66.0°F18.9°C 63.9°F17.7°C 93% Calm Calm -- 26.88 in910.3 mb - 0.00 in0.0 mm 0.00 in0.0 mm
04:15 AM 62.0°F16.7°C 60.0°F15.6°C 93% Calm Calm -- 26.87 in909.9 mb - 0.00 in0.0 mm 0.00 in0.0 mm
04:20 AM 63.0°F17.2°C 61.5°F16.4°C 95% Calm Calm -- 26.87 in909.9 mb - 0.00 in0.0 mm 0.00 in0.0 mm
04:25 AM 63.0°F17.2°C 60.6°F15.9°C 92% Calm Calm -- 26.88 in910.3 mb - 0.00 in0.0 mm 0.00 in0.0 mm
04:30 AM 62.7°F17.1°C 60.3°F15.7°C 92% Calm Calm -- 26.88 in910.3 mb - 0.00 in0.0 mm 0.00 in0.0 mm
04:35 AM 62.0°F16.7°C 59.3°F15.2°C 91% Calm Calm -- 26.87 in909.9 mb - 0.00 in0.0 mm 0.00 in0.0 mm
04:40 AM 65.0°F18.3°C 63.2°F17.3°C 94% Calm Calm -- 26.87 in909.9 mb - 0.00 in0.0 mm 0.00 in0.0 mm
04:45 AM 62.0°F16.7°C 60.0°F15.6°C 93% Calm Calm -- 26.87 in909.9 mb - 0.00 in0.0 mm 0.00 in0.0 mm
04:50 AM 63.0°F17.2°C 61.2°F16.2°C 94% Calm Calm -- 26.87 in909.9 mb - 0.00 in0.0 mm 0.00 in0.0 mm
04:55 AM 62.0°F16.7°C 59.3°F15.2°C 91% Calm Calm -- 26.87 in909.9 mb - 0.00 in0.0 mm 0.00 in0.0 mm
05:00 AM 62.0°F16.7°C 59.6°F15.3°C 92% Calm Calm -- 26.87 in909.9 mb - 0.00 in0.0 mm 0.00 in0.0 mm
05:10 AM 63.0°F17.2°C 61.5°F16.4°C 95% Calm Calm -- 26.87 in909.9 mb - 0.00 in0.0 mm 0.00 in0.0 mm
05:15 AM 61.0°F16.1°C 58.7°F14.8°C 92% Calm Calm -- 26.87 in909.9 mb - 0.00 in0.0 mm 0.00 in0.0 mm
05:20 AM 62.0°F16.7°C 58.4°F14.7°C 88% Calm Calm -- 26.86 in909.6 mb - 0.00 in0.0 mm 0.00 in0.0 mm
05:25 AM 62.0°F16.7°C 59.3°F15.2°C 91% Calm Calm -- 26.87 in909.9 mb - 0.00 in0.0 mm 0.00 in0.0 mm
05:30 AM 62.0°F16.7°C 58.1°F14.5°C 87% Calm Calm -- 26.86 in909.6 mb - 0.00 in0.0 mm 0.00 in0.0 mm
05:35 AM 62.0°F16.7°C 57.8°F14.3°C 86% Calm Calm -- 26.86 in909.6 mb - 0.00 in0.0 mm 0.00 in0.0 mm
05:40 AM 62.0°F16.7°C 57.8°F14.3°C 86% Calm Calm -- 26.86 in909.6 mb - 0.00 in0.0 mm 0.00 in0.0 mm
05:45 AM 62.0°F16.7°C 59.3°F15.2°C 91% Calm Calm -- 26.87 in909.9 mb - 0.00 in0.0 mm 0.00 in0.0 mm
05:50 AM 62.0°F16.7°C 57.4°F14.1°C 85% Calm Calm -- 26.86 in909.6 mb - 0.00 in0.0 mm 0.00 in0.0 mm
05:55 AM 62.0°F16.7°C 57.1°F13.9°C 84% Calm Calm -- 26.86 in909.6 mb - 0.00 in0.0 mm 0.00 in0.0 mm
06:00 AM 62.0°F16.7°C 57.4°F14.1°C 85% Calm Calm -- 26.87 in909.9 mb - 0.00 in0.0 mm 0.00 in0.0 mm
06:10 AM 62.0°F16.7°C 57.4°F14.1°C 85% Calm Calm -- 26.86 in909.6 mb - 0.00 in0.0 mm 0.00 in0.0 mm
06:15 AM 62.0°F16.7°C 57.8°F14.3°C 86% Calm Calm -- 26.86 in909.6 mb - 0.00 in0.0 mm 0.00 in0.0 mm
06:20 AM 62.0°F16.7°C 56.8°F13.8°C 83% Calm Calm -- 26.86 in909.6 mb - 0.00 in0.0 mm 0.00 in0.0 mm
06:25 AM 62.0°F16.7°C 57.8°F14.3°C 86% Calm Calm -- 26.86 in909.6 mb - 0.00 in0.0 mm 0.00 in0.0 mm
06:30 AM 62.0°F16.7°C 57.8°F14.3°C 86% Calm Calm -- 26.86 in909.6 mb - 0.00 in0.0 mm 0.00 in0.0 mm
06:35 AM 62.0°F16.7°C 57.4°F14.1°C 85% Calm Calm -- 26.86 in909.6 mb - 0.00 in0.0 mm 0.00 in0.0 mm
06:40 AM 62.0°F16.7°C 57.1°F13.9°C 84% Calm Calm -- 26.86 in909.6 mb - 0.00 in0.0 mm 0.00 in0.0 mm
06:45 AM 63.0°F17.2°C 57.1°F13.9°C 81% Calm Calm -- 26.86 in909.6 mb - 0.00 in0.0 mm 0.00 in0.0 mm
06:50 AM 62.0°F16.7°C 56.8°F13.8°C 83% Calm Calm -- 26.85 in909.2 mb - 0.00 in0.0 mm 0.00 in0.0 mm
06:55 AM 62.0°F16.7°C 57.4°F14.1°C 85% Calm Calm -- 26.85 in909.2 mb - 0.00 in0.0 mm 0.00 in0.0 mm
07:00 AM 62.0°F16.7°C 56.1°F13.4°C 81% Calm Calm -- 26.85 in909.2 mb - 0.00 in0.0 mm 0.00 in0.0 mm
07:10 AM 62.0°F16.7°C 57.1°F13.9°C 84% Calm Calm -- 26.85 in909.2 mb - 0.00 in0.0 mm 0.00 in0.0 mm
07:15 AM 62.0°F16.7°C 56.8°F13.8°C 83% Calm Calm -- 26.85 in909.2 mb - 0.00 in0.0 mm 0.00 in0.0 mm
07:20 AM 63.0°F17.2°C 56.0°F13.3°C 78% Calm Calm -- 26.85 in909.2 mb - 0.00 in0.0 mm 0.00 in0.0 mm
07:25 AM 63.0°F17.2°C 54.9°F12.7°C 75% Calm Calm -- 26.84 in908.9 mb - 0.00 in0.0 mm 0.00 in0.0 mm
07:30 AM 64.0°F17.8°C 55.2°F12.9°C 73% Calm Calm -- 26.84 in908.9 mb - 0.00 in0.0 mm 0.00 in0.0 mm
07:35 AM 65.2°F18.4°C 55.5°F13.1°C 71% Calm Calm -- 26.85 in909.2 mb - 0.00 in0.0 mm 0.00 in0.0 mm
07:40 AM 66.0°F18.9°C 55.9°F13.3°C 70% Calm Calm -- 26.85 in909.2 mb - 0.00 in0.0 mm 0.00 in0.0 mm
07:45 AM 63.0°F17.2°C 56.0°F13.3°C 78% Calm Calm -- 26.85 in909.2 mb - 0.00 in0.0 mm 0.00 in0.0 mm
07:50 AM 74.0°F23.3°C 57.8°F14.3°C 57% Calm Calm -- 26.84 in908.9 mb - 0.00 in0.0 mm 0.00 in0.0 mm
07:55 AM 72.0°F22.2°C 57.8°F14.3°C 61% Calm Calm -- 26.84 in908.9 mb - 0.00 in0.0 mm 0.00 in0.0 mm
08:00 AM 70.0°F21.1°C 56.8°F13.8°C 63% Calm Calm -- 26.84 in908.9 mb - 0.00 in0.0 mm 0.00 in0.0 mm
08:10 AM 69.0°F20.6°C 57.6°F14.2°C 67% Calm Calm -- 26.84 in908.9 mb - 0.00 in0.0 mm 0.00 in0.0 mm
08:15 AM 70.0°F21.1°C 56.4°F13.6°C 62% Calm Calm -- 26.84 in908.9 mb - 0.00 in0.0 mm 0.00 in0.0 mm
08:20 AM 70.0°F21.1°C 59.4°F15.2°C 69% Calm Calm -- 26.84 in908.9 mb - 0.00 in0.0 mm 0.00 in0.0 mm
08:25 AM 70.0°F21.1°C 57.3°F14.1°C 64% Calm Calm -- 26.83 in908.6 mb - 0.00 in0.0 mm 0.00 in0.0 mm
08:30 AM 66.0°F18.9°C 55.9°F13.3°C 70% Calm Calm -- 26.85 in909.2 mb - 0.00 in0.0 mm 0.00 in0.0 mm
08:35 AM 69.6°F20.9°C 58.6°F14.8°C 68% Calm Calm -- 26.84 in908.9 mb - 0.00 in0.0 mm 0.00 in0.0 mm
08:40 AM 71.0°F21.7°C 59.5°F15.3°C 67% Calm Calm -- 26.83 in908.6 mb - 0.00 in0.0 mm 0.00 in0.0 mm
08:45 AM 72.0°F22.2°C 58.3°F14.6°C 62% Calm Calm -- 26.84 in908.9 mb - 0.00 in0.0 mm 0.00 in0.0 mm
08:50 AM 73.0°F22.8°C 59.2°F15.1°C 62% Calm Calm -- 26.83 in908.6 mb - 0.00 in0.0 mm 0.00 in0.0 mm
08:55 AM 64.0°F17.8°C 55.2°F12.9°C 73% Calm Calm -- 26.84 in908.9 mb - 0.00 in0.0 mm 0.00 in0.0 mm
09:00 AM 75.0°F23.9°C 63.3°F17.4°C 67% Calm Calm -- 26.83 in908.6 mb - 0.00 in0.0 mm 0.00 in0.0 mm
09:10 AM 75.0°F23.9°C 62.9°F17.2°C 66% Calm Calm -- 26.83 in908.6 mb - 0.00 in0.0 mm 0.00 in0.0 mm
09:15 AM 76.0°F24.4°C 61.6°F16.4°C 61% Calm Calm -- 26.83 in908.6 mb - 0.00 in0.0 mm 0.00 in0.0 mm
09:20 AM 77.0°F25.0°C 61.6°F16.4°C 59% Calm Calm -- 26.83 in908.6 mb - 0.00 in0.0 mm 0.00 in0.0 mm
09:25 AM 77.0°F25.0°C 64.3°F17.9°C 65% Calm Calm -- 26.83 in908.6 mb - 0.00 in0.0 mm 0.00 in0.0 mm
09:30 AM 77.6°F25.3°C 64.9°F18.3°C 65% Calm Calm -- 26.83 in908.6 mb - 0.00 in0.0 mm 0.00 in0.0 mm
09:35 AM 78.0°F25.6°C 58.4°F14.7°C 51% Calm Calm -- 26.83 in908.6 mb - 0.00 in0.0 mm 0.00 in0.0 mm
09:40 AM 79.0°F26.1°C 63.4°F17.4°C 59% Calm Calm -- 26.83 in908.6 mb - 0.00 in0.0 mm 0.00 in0.0 mm
09:45 AM 80.0°F26.7°C 62.4°F16.9°C 55% Calm Calm -- 26.83 in908.6 mb - 0.00 in0.0 mm 0.00 in0.0 mm
09:50 AM 81.0°F27.2°C 65.8°F18.8°C 60% Calm Calm -- 26.83 in908.6 mb - 0.00 in0.0 mm 0.00 in0.0 mm
09:55 AM 82.0°F27.8°C 64.2°F17.9°C 55% Calm Calm -- 26.83 in908.6 mb - 0.00 in0.0 mm 0.00 in0.0 mm
10:00 AM 82.8°F28.2°C 66.0°F18.9°C 57% Calm Calm -- 26.82 in908.2 mb - 0.00 in0.0 mm 0.00 in0.0 mm
10:10 AM 82.0°F27.8°C 56.6°F13.7°C 42% Calm Calm -- 26.82 in908.2 mb - 0.00 in0.0 mm 0.00 in0.0 mm
10:15 AM 84.0°F28.9°C 63.4°F17.4°C 50% Calm Calm -- 26.82 in908.2 mb - 0.00 in0.0 mm 0.00 in0.0 mm
10:20 AM 85.0°F29.4°C 59.3°F15.2°C 42% Calm Calm -- 26.82 in908.2 mb - 0.00 in0.0 mm 0.00 in0.0 mm
10:25 AM 86.0°F30.0°C 59.6°F15.3°C 41% Calm Calm -- 26.81 in907.9 mb - 0.00 in0.0 mm 0.00 in0.0 mm
10:30 AM 86.0°F30.0°C 58.9°F14.9°C 40% 1.2 mph W1.9 kmh W 1.2 mph1.9 kmh 26.82 in908.2 mb - 0.00 in0.0 mm 0.00 in0.0 mm
10:35 AM 86.0°F30.0°C 58.9°F14.9°C 40% 1.2 mph W1.9 kmh W 1.2 mph1.9 kmh 26.82 in908.2 mb - 0.00 in0.0 mm 0.00 in0.0 mm
10:40 AM 86.0°F30.0°C 58.9°F14.9°C 40% Calm Calm -- 26.81 in907.9 mb - 0.00 in0.0 mm 0.00 in0.0 mm
10:45 AM 87.0°F30.6°C 59.8°F15.4°C 40% Calm Calm -- 26.81 in907.9 mb - 0.00 in0.0 mm 0.00 in0.0 mm
10:50 AM 88.0°F31.1°C 59.9°F15.5°C 39% Calm Calm -- 26.81 in907.9 mb - 0.00 in0.0 mm 0.00 in0.0 mm
10:55 AM 88.0°F31.1°C 56.9°F13.8°C 35% Calm Calm -- 26.80 in907.6 mb - 0.00 in0.0 mm 0.00 in0.0 mm
11:00 AM 88.4°F31.3°C 58.0°F14.4°C 36% Calm Calm -- 26.80 in907.6 mb - 0.00 in0.0 mm 0.00 in0.0 mm
11:10 AM 88.0°F31.1°C 59.9°F15.5°C 39% Calm Calm -- 26.80 in907.6 mb - 0.00 in0.0 mm 0.00 in0.0 mm
11:15 AM 87.0°F30.6°C 61.8°F16.6°C 43% Calm Calm -- 26.80 in907.6 mb - 0.00 in0.0 mm 0.00 in0.0 mm
11:20 AM 89.0°F31.7°C 62.2°F16.8°C 41% Calm Calm 1.2 mph1.9 kmh 26.80 in907.6 mb - 0.00 in0.0 mm 0.00 in0.0 mm
11:25 AM 89.0°F31.7°C 62.2°F16.8°C 41% Calm Calm 2.3 mph3.7 kmh 26.80 in907.6 mb - 0.00 in0.0 mm 0.00 in0.0 mm
11:30 AM 89.0°F31.7°C 61.5°F16.4°C 40% 1.2 mph W1.9 kmh W 2.3 mph3.7 kmh 26.79 in907.2 mb - 0.00 in0.0 mm 0.00 in0.0 mm
11:35 AM 89.0°F31.7°C 60.8°F16.0°C 39% Calm Calm -- 26.79 in907.2 mb - 0.00 in0.0 mm 0.00 in0.0 mm
11:40 AM 88.0°F31.1°C 59.9°F15.5°C 39% Calm Calm -- 26.80 in907.6 mb - 0.00 in0.0 mm 0.00 in0.0 mm
11:45 AM 90.9°F32.7°C 61.0°F16.1°C 37% Calm Calm -- 26.79 in907.2 mb - 0.00 in0.0 mm 0.00 in0.0 mm
11:50 AM 91.0°F32.8°C 61.1°F16.2°C 37% Calm Calm -- 26.79 in907.2 mb - 0.00 in0.0 mm 0.00 in0.0 mm
11:55 AM 92.0°F33.3°C 64.9°F18.3°C 41% Calm Calm -- 26.79 in907.2 mb - 0.00 in0.0 mm 0.00 in0.0 mm
12:00 PM 91.0°F32.8°C 63.3°F17.4°C 40% 1.2 mph W1.9 kmh W 1.2 mph1.9 kmh 26.79 in907.2 mb - 0.00 in0.0 mm 0.00 in0.0 mm
12:10 PM 92.4°F33.6°C 66.0°F18.9°C 42% Calm Calm 1.2 mph1.9 kmh 26.78 in906.9 mb - 0.00 in0.0 mm 0.00 in0.0 mm
12:15 PM 93.0°F33.9°C 57.0°F13.9°C 30% Calm Calm 1.2 mph1.9 kmh 26.77 in906.5 mb - 0.00 in0.0 mm 0.00 in0.0 mm
12:20 PM 94.0°F34.4°C 61.4°F16.3°C 34% Calm Calm 1.2 mph1.9 kmh 26.78 in906.9 mb - 0.00 in0.0 mm 0.00 in0.0 mm
12:25 PM 93.0°F33.9°C 61.3°F16.3°C 35% Calm Calm -- 26.77 in906.5 mb - 0.00 in0.0 mm 0.00 in0.0 mm
12:30 PM 96.0°F35.6°C 61.4°F16.3°C 32% Calm Calm -- 26.76 in906.2 mb - 0.00 in0.0 mm 0.00 in0.0 mm
12:35 PM 98.0°F36.7°C 60.3°F15.7°C 29% Calm Calm -- 26.77 in906.5 mb - 0.00 in0.0 mm 0.00 in0.0 mm
12:40 PM 98.1°F36.7°C 60.4°F15.8°C 29% Calm Calm 2.3 mph3.7 kmh 26.77 in906.5 mb - 0.00 in0.0 mm 0.00 in0.0 mm
12:45 PM 99.0°F37.2°C 46.6°F8.1°C 17% 2.3 mph SE3.7 kmh SE 2.3 mph3.7 kmh 26.76 in906.2 mb - 0.00 in0.0 mm 0.00 in0.0 mm
12:50 PM 101.0°F38.3°C 48.2°F9.0°C 17% Calm Calm -- 26.76 in906.2 mb - 0.00 in0.0 mm 0.00 in0.0 mm
12:55 PM 101.0°F38.3°C 51.2°F10.7°C 19% Calm Calm -- 26.76 in906.2 mb - 0.00 in0.0 mm 0.00 in0.0 mm
01:00 PM 101.0°F38.3°C 49.7°F9.8°C 18% 1.2 mph N1.9 kmh N 1.2 mph1.9 kmh 26.76 in906.2 mb - 0.00 in0.0 mm 0.00 in0.0 mm
01:10 PM 102.0°F38.9°C 47.4°F8.6°C 16% Calm Calm 1.2 mph1.9 kmh 26.75 in905.9 mb - 0.00 in0.0 mm 0.00 in0.0 mm
01:15 PM 102.0°F38.9°C 49.0°F9.4°C 17% Calm Calm -- 26.76 in906.2 mb - 0.00 in0.0 mm 0.00 in0.0 mm
01:20 PM 101.0°F38.3°C 49.7°F9.8°C 18% Calm Calm -- 26.75 in905.9 mb - 0.00 in0.0 mm 0.00 in0.0 mm
01:25 PM 101.0°F38.3°C 49.7°F9.8°C 18% Calm Calm -- 26.81 in907.9 mb - 0.00 in0.0 mm 0.00 in0.0 mm
01:30 PM 64.0°F17.8°C 55.2°F12.9°C 73% Calm Calm -- 26.84 in908.9 mb - 0.00 in0.0 mm 0.00 in0.0 mm
01:35 PM 101.0°F38.3°C 46.6°F8.1°C 16% Calm Calm 1.2 mph1.9 kmh 26.76 in906.2 mb - 0.00 in0.0 mm 0.00 in0.0 mm
01:40 PM 99.0°F37.2°C 48.1°F8.9°C 18% 1.2 mph NNE1.9 kmh NNE 1.2 mph1.9 kmh 26.76 in906.2 mb - 0.00 in0.0 mm 0.00 in0.0 mm
01:45 PM 99.0°F37.2°C 48.1°F8.9°C 18% Calm Calm 1.2 mph1.9 kmh 26.76 in906.2 mb - 0.00 in0.0 mm 0.00 in0.0 mm
01:50 PM 99.0°F37.2°C 48.1°F8.9°C 18% Calm Calm -- 26.76 in906.2 mb - 0.00 in0.0 mm 0.00 in0.0 mm
01:55 PM 100.0°F37.8°C 45.8°F7.7°C 16% Calm Calm 1.2 mph1.9 kmh 26.76 in906.2 mb - 0.00 in0.0 mm 0.00 in0.0 mm
02:00 PM 100.0°F37.8°C 51.7°F10.9°C 20% Calm Calm -- 26.76 in906.2 mb - 0.00 in0.0 mm 0.00 in0.0 mm
02:10 PM 99.1°F37.3°C 45.0°F7.2°C 16% 1.2 mph NNE1.9 kmh NNE 1.2 mph1.9 kmh 26.75 in905.9 mb - 0.00 in0.0 mm 0.00 in0.0 mm
02:15 PM 99.0°F37.2°C 45.0°F7.2°C 16% 1.2 mph NNE1.9 kmh NNE 1.2 mph1.9 kmh 26.75 in905.9 mb - 0.00 in0.0 mm 0.00 in0.0 mm
02:20 PM 99.0°F37.2°C 48.1°F8.9°C 18% Calm Calm -- 26.75 in905.9 mb - 0.00 in0.0 mm 0.00 in0.0 mm
02:25 PM 100.0°F37.8°C 44.1°F6.7°C 15% 1.2 mph WNW1.9 kmh WNW 2.3 mph3.7 kmh 26.74 in905.5 mb - 0.00 in0.0 mm 0.00 in0.0 mm
02:30 PM 99.0°F37.2°C 48.1°F8.9°C 18% Calm Calm 1.2 mph1.9 kmh 26.75 in905.9 mb - 0.00 in0.0 mm 0.00 in0.0 mm
02:35 PM 99.0°F37.2°C 46.6°F8.1°C 17% 1.2 mph NNW1.9 kmh NNW 1.2 mph1.9 kmh 26.75 in905.9 mb - 0.00 in0.0 mm 0.00 in0.0 mm
02:40 PM 98.4°F36.9°C 47.6°F8.7°C 18% 1.2 mph NNW1.9 kmh NNW 1.2 mph1.9 kmh 26.74 in905.5 mb - 0.00 in0.0 mm 0.00 in0.0 mm
02:45 PM 98.0°F36.7°C 47.3°F8.5°C 18% 1.2 mph NNW1.9 kmh NNW 1.2 mph1.9 kmh 26.74 in905.5 mb - 0.00 in0.0 mm 0.00 in0.0 mm
02:50 PM 97.0°F36.1°C 43.4°F6.3°C 16% 1.2 mph WSW1.9 kmh WSW 1.2 mph1.9 kmh 26.74 in905.5 mb - 0.00 in0.0 mm 0.00 in0.0 mm
02:55 PM 96.0°F35.6°C 48.5°F9.2°C 20% Calm Calm -- 26.74 in905.5 mb - 0.00 in0.0 mm 0.00 in0.0 mm
03:00 PM 96.0°F35.6°C 49.8°F9.9°C 21% Calm Calm -- 26.74 in905.5 mb - 0.00 in0.0 mm 0.00 in0.0 mm
03:10 PM 96.0°F35.6°C 49.8°F9.9°C 21% Calm Calm 1.2 mph1.9 kmh 26.74 in905.5 mb - 0.00 in0.0 mm 0.00 in0.0 mm
03:15 PM 96.0°F35.6°C 45.7°F7.6°C 18% Calm Calm 1.2 mph1.9 kmh 26.74 in905.5 mb - 0.00 in0.0 mm 0.00 in0.0 mm
03:20 PM 95.0°F35.0°C 41.8°F5.4°C 16% Calm Calm 1.2 mph1.9 kmh 26.74 in905.5 mb - 0.00 in0.0 mm 0.00 in0.0 mm
03:25 PM 96.0°F35.6°C 42.6°F5.9°C 16% Calm Calm -- 26.73 in905.2 mb - 0.00 in0.0 mm 0.00 in0.0 mm
03:30 PM 95.0°F35.0°C 46.3°F7.9°C 19% Calm Calm -- 26.74 in905.5 mb - 0.00 in0.0 mm 0.00 in0.0 mm
03:35 PM 95.0°F35.0°C 44.9°F7.2°C 18% Calm Calm 1.2 mph1.9 kmh 26.73 in905.2 mb - 0.00 in0.0 mm 0.00 in0.0 mm
03:40 PM 94.9°F34.9°C 44.8°F7.1°C 18% Calm Calm 1.2 mph1.9 kmh 26.73 in905.2 mb - 0.00 in0.0 mm 0.00 in0.0 mm
03:45 PM 94.0°F34.4°C 45.5°F7.5°C 19% Calm Calm 1.2 mph1.9 kmh 26.74 in905.5 mb - 0.00 in0.0 mm 0.00 in0.0 mm
03:50 PM 94.0°F34.4°C 48.1°F8.9°C 21% Calm Calm -- 26.73 in905.2 mb - 0.00 in0.0 mm 0.00 in0.0 mm
03:55 PM 93.0°F33.9°C 43.2°F6.2°C 18% Calm Calm -- 26.73 in905.2 mb - 0.00 in0.0 mm 0.00 in0.0 mm
04:00 PM 93.0°F33.9°C 47.3°F8.5°C 21% 1.2 mph NE1.9 kmh NE 1.2 mph1.9 kmh 26.73 in905.2 mb - 0.00 in0.0 mm 0.00 in0.0 mm
04:10 PM 92.0°F33.3°C 50.0°F10.0°C 24% Calm Calm 1.2 mph1.9 kmh 26.73 in905.2 mb - 0.00 in0.0 mm 0.00 in0.0 mm
04:15 PM 92.0°F33.3°C 51.1°F10.6°C 25% Calm Calm -- 26.72 in904.8 mb - 0.00 in0.0 mm 0.00 in0.0 mm
04:20 PM 92.0°F33.3°C 40.9°F4.9°C 17% 1.2 mph E1.9 kmh E 1.2 mph1.9 kmh 26.73 in905.2 mb - 0.00 in0.0 mm 0.00 in0.0 mm
04:25 PM 92.0°F33.3°C 45.2°F7.3°C 20% Calm Calm 1.2 mph1.9 kmh 26.73 in905.2 mb - 0.00 in0.0 mm 0.00 in0.0 mm
04:30 PM 94.0°F34.4°C 48.1°F8.9°C 21% Calm Calm -- 26.73 in905.2 mb - 0.00 in0.0 mm 0.00 in0.0 mm
04:35 PM 92.7°F33.7°C 50.6°F10.3°C 24% Calm Calm -- 26.72 in904.8 mb - 0.00 in0.0 mm 0.00 in0.0 mm
04:40 PM 92.0°F33.3°C 51.1°F10.6°C 25% Calm Calm -- 26.72 in904.8 mb - 0.00 in0.0 mm 0.00 in0.0 mm
04:45 PM 91.0°F32.8°C 43.0°F6.1°C 19% 1.2 mph WNW1.9 kmh WNW 1.2 mph1.9 kmh 26.73 in905.2 mb - 0.00 in0.0 mm 0.00 in0.0 mm
04:50 PM 92.0°F33.3°C 45.2°F7.3°C 20% 2.3 mph SE3.7 kmh SE 2.3 mph3.7 kmh 26.72 in904.8 mb - 0.00 in0.0 mm 0.00 in0.0 mm
04:55 PM 92.0°F33.3°C 45.2°F7.3°C 20% 1.2 mph WNW1.9 kmh WNW 2.3 mph3.7 kmh 26.72 in904.8 mb - 0.00 in0.0 mm 0.00 in0.0 mm
05:00 PM 91.0°F32.8°C 49.2°F9.6°C 24% Calm Calm 1.2 mph1.9 kmh 26.71 in904.5 mb - 0.00 in0.0 mm 0.00 in0.0 mm
05:10 PM 90.9°F32.7°C 49.1°F9.5°C 24% Calm Calm 1.2 mph1.9 kmh 26.72 in904.8 mb - 0.00 in0.0 mm 0.00 in0.0 mm
05:15 PM 90.0°F32.2°C 46.0°F7.8°C 22% Calm Calm 1.2 mph1.9 kmh 26.71 in904.5 mb - 0.00 in0.0 mm 0.00 in0.0 mm
05:20 PM 90.0°F32.2°C 50.5°F10.3°C 26% Calm Calm -- 26.72 in904.8 mb - 0.00 in0.0 mm 0.00 in0.0 mm
05:25 PM 90.0°F32.2°C 44.8°F7.1°C 21% 2.3 mph WNW3.7 kmh WNW 3.5 mph5.6 kmh 26.72 in904.8 mb - 0.00 in0.0 mm 0.00 in0.0 mm
05:30 PM 90.0°F32.2°C 49.5°F9.7°C 25% Calm Calm 1.2 mph1.9 kmh 26.72 in904.8 mb - 0.00 in0.0 mm 0.00 in0.0 mm
05:35 PM 93.0°F33.9°C 57.0°F13.9°C 30% Calm Calm 1.2 mph1.9 kmh 26.77 in906.5 mb - 0.00 in0.0 mm 0.00 in0.0 mm
05:40 PM 93.0°F33.9°C 57.0°F13.9°C 30% Calm Calm 1.2 mph1.9 kmh 26.80 in907.6 mb - 0.00 in0.0 mm 0.00 in0.0 mm
05:45 PM 68.0°F20.0°C 65.3°F18.5°C 91% Calm Calm -- 26.90 in910.9 mb - 0.00 in0.0 mm 0.00 in0.0 mm
05:50 PM 88.0°F31.1°C 49.8°F9.9°C 27% Calm Calm -- 26.71 in904.5 mb - 0.00 in0.0 mm 0.00 in0.0 mm
05:55 PM 91.0°F32.8°C 43.0°F6.1°C 19% 1.2 mph WNW1.9 kmh WNW 1.2 mph1.9 kmh 26.73 in905.2 mb - 0.00 in0.0 mm 0.00 in0.0 mm
06:00 PM 88.0°F31.1°C 46.7°F8.2°C 24% 1.2 mph N1.9 kmh N 1.2 mph1.9 kmh 26.71 in904.5 mb - 0.00 in0.0 mm 0.00 in0.0 mm
06:10 PM 71.0°F21.7°C 59.5°F15.3°C 67% Calm Calm 1.2 mph1.9 kmh 26.78 in906.9 mb - 0.00 in0.0 mm 0.00 in0.0 mm
06:15 PM 87.0°F30.6°C 50.0°F10.0°C 28% Calm Calm 1.2 mph1.9 kmh 26.72 in904.8 mb - 0.00 in0.0 mm 0.00 in0.0 mm
06:20 PM 86.0°F30.0°C 49.1°F9.5°C 28% Calm Calm -- 26.72 in904.8 mb - 0.00 in0.0 mm 0.00 in0.0 mm
06:25 PM 86.0°F30.0°C 58.9°F14.9°C 40% Calm Calm -- 26.71 in904.5 mb - 0.00 in0.0 mm 0.00 in0.0 mm
06:30 PM 84.0°F28.9°C 53.4°F11.9°C 35% Calm Calm -- 26.71 in904.5 mb - 0.00 in0.0 mm 0.00 in0.0 mm
06:35 PM 95.0°F35.0°C 55.8°F13.2°C 27% Calm Calm 1.2 mph1.9 kmh 26.74 in905.5 mb - 0.00 in0.0 mm 0.00 in0.0 mm
06:40 PM 84.6°F29.2°C 33.4°F0.8°C 16% Calm Calm 1.2 mph1.9 kmh 26.72 in904.8 mb - 0.00 in0.0 mm 0.00 in0.0 mm
06:45 PM 82.0°F27.8°C 53.9°F12.2°C 38% Calm Calm -- 26.71 in904.5 mb - 0.00 in0.0 mm 0.00 in0.0 mm
06:50 PM 80.0°F26.7°C 54.2°F12.3°C 41% Calm Calm -- 26.71 in904.5 mb - 0.00 in0.0 mm 0.00 in0.0 mm
06:55 PM 98.0°F36.7°C 47.3°F8.5°C 18% 1.2 mph NNW1.9 kmh NNW 1.2 mph1.9 kmh 26.74 in905.5 mb - 0.00 in0.0 mm 0.00 in0.0 mm
07:00 PM 80.0°F26.7°C 53.5°F11.9°C 40% Calm Calm -- 26.71 in904.5 mb - 0.00 in0.0 mm 0.00 in0.0 mm
07:10 PM 79.0°F26.1°C 52.6°F11.4°C 40% Calm Calm -- 26.71 in904.5 mb - 0.00 in0.0 mm 0.00 in0.0 mm
07:15 PM 78.6°F25.9°C 52.9°F11.6°C 41% Calm Calm -- 26.71 in904.5 mb - 0.00 in0.0 mm 0.00 in0.0 mm
07:20 PM 78.0°F25.6°C 53.0°F11.7°C 42% Calm Calm -- 26.72 in904.8 mb - 0.00 in0.0 mm 0.00 in0.0 mm
07:25 PM 62.0°F16.7°C 57.1°F13.9°C 84% Calm Calm -- 26.85 in909.2 mb - 0.00 in0.0 mm 0.00 in0.0 mm
07:30 PM 78.0°F25.6°C 49.6°F9.8°C 37% Calm Calm -- 26.71 in904.5 mb - 0.00 in0.0 mm 0.00 in0.0 mm
07:35 PM 78.0°F25.6°C 50.3°F10.2°C 38% Calm Calm -- 26.72 in904.8 mb - 0.00 in0.0 mm 0.00 in0.0 mm
07:40 PM 77.0°F25.0°C 50.1°F10.1°C 39% Calm Calm -- 26.71 in904.5 mb - 0.00 in0.0 mm 0.00 in0.0 mm
07:45 PM 77.0°F25.0°C 49.4°F9.7°C 38% Calm Calm -- 26.72 in904.8 mb - 0.00 in0.0 mm 0.00 in0.0 mm
07:50 PM 77.0°F25.0°C 49.4°F9.7°C 38% Calm Calm -- 26.72 in904.8 mb - 0.00 in0.0 mm 0.00 in0.0 mm
07:55 PM 77.0°F25.0°C 54.0°F12.2°C 45% Calm Calm -- 26.72 in904.8 mb - 0.00 in0.0 mm 0.00 in0.0 mm
08:00 PM 76.0°F24.4°C 54.3°F12.4°C 47% Calm Calm -- 26.72 in904.8 mb - 0.00 in0.0 mm 0.00 in0.0 mm
08:10 PM 75.0°F23.9°C 52.8°F11.6°C 46% Calm Calm -- 26.72 in904.8 mb - 0.00 in0.0 mm 0.00 in0.0 mm
08:15 PM 75.0°F23.9°C 53.4°F11.9°C 47% Calm Calm -- 26.72 in904.8 mb - 0.00 in0.0 mm 0.00 in0.0 mm
08:20 PM 74.7°F23.7°C 52.5°F11.4°C 46% Calm Calm -- 26.72 in904.8 mb - 0.00 in0.0 mm 0.00 in0.0 mm
08:25 PM 74.0°F23.3°C 51.3°F10.7°C 45% Calm Calm -- 26.73 in905.2 mb - 0.00 in0.0 mm 0.00 in0.0 mm
08:30 PM 74.0°F23.3°C 54.7°F12.6°C 51% Calm Calm -- 26.72 in904.8 mb - 0.00 in0.0 mm 0.00 in0.0 mm
08:35 PM 74.0°F23.3°C 53.1°F11.7°C 48% Calm Calm -- 26.73 in905.2 mb - 0.00 in0.0 mm 0.00 in0.0 mm
08:40 PM 93.0°F33.9°C 47.3°F8.5°C 21% 1.2 mph NE1.9 kmh NE 1.2 mph1.9 kmh 26.73 in905.2 mb - 0.00 in0.0 mm 0.00 in0.0 mm
08:45 PM 89.3°F31.8°C 49.9°F9.9°C 26% Calm Calm -- 26.73 in905.2 mb - 0.00 in0.0 mm 0.00 in0.0 mm
08:50 PM 73.0°F22.8°C 53.8°F12.1°C 51% Calm Calm -- 26.73 in905.2 mb - 0.00 in0.0 mm 0.00 in0.0 mm
08:55 PM 73.0°F22.8°C 53.8°F12.1°C 51% Calm Calm -- 26.73 in905.2 mb - 0.00 in0.0 mm 0.00 in0.0 mm
09:00 PM 73.0°F22.8°C 52.1°F11.2°C 48% Calm Calm -- 26.73 in905.2 mb - 0.00 in0.0 mm 0.00 in0.0 mm
09:10 PM 73.0°F22.8°C 55.4°F13.0°C 54% Calm Calm -- 26.74 in905.5 mb - 0.00 in0.0 mm 0.00 in0.0 mm
09:15 PM 73.0°F22.8°C 52.1°F11.2°C 48% Calm Calm -- 26.75 in905.9 mb - 0.00 in0.0 mm 0.00 in0.0 mm
09:20 PM 73.0°F22.8°C 52.1°F11.2°C 48% Calm Calm -- 26.75 in905.9 mb - 0.00 in0.0 mm 0.00 in0.0 mm
09:25 PM 73.0°F22.8°C 52.1°F11.2°C 48% Calm Calm -- 26.75 in905.9 mb - 0.00 in0.0 mm 0.00 in0.0 mm
09:30 PM 73.0°F22.8°C 52.1°F11.2°C 48% Calm Calm -- 26.75 in905.9 mb - 0.00 in0.0 mm 0.00 in0.0 mm
09:35 PM 73.0°F22.8°C 51.6°F10.9°C 47% Calm Calm -- 26.75 in905.9 mb - 0.00 in0.0 mm 0.00 in0.0 mm
09:40 PM 73.0°F22.8°C 51.6°F10.9°C 47% Calm Calm -- 26.74 in905.5 mb - 0.00 in0.0 mm 0.00 in0.0 mm
09:45 PM 73.0°F22.8°C 53.3°F11.8°C 50% Calm Calm -- 26.74 in905.5 mb - 0.00 in0.0 mm 0.00 in0.0 mm
09:50 PM 74.0°F23.3°C 53.6°F12.0°C 49% Calm Calm -- 26.75 in905.9 mb - 0.00 in0.0 mm 0.00 in0.0 mm
09:55 PM 74.0°F23.3°C 54.2°F12.3°C 50% Calm Calm -- 26.75 in905.9 mb - 0.00 in0.0 mm 0.00 in0.0 mm
10:00 PM 74.0°F23.3°C 54.1°F12.3°C 50% Calm Calm -- 26.75 in905.9 mb - 0.00 in0.0 mm 0.00 in0.0 mm
10:10 PM 73.0°F22.8°C 53.8°F12.1°C 51% Calm Calm -- 26.74 in905.5 mb - 0.00 in0.0 mm 0.00 in0.0 mm
10:15 PM 73.0°F22.8°C 55.4°F13.0°C 54% Calm Calm -- 26.75 in905.9 mb - 0.00 in0.0 mm 0.00 in0.0 mm
10:20 PM 72.0°F22.2°C 53.9°F12.2°C 53% Calm Calm -- 26.75 in905.9 mb - 0.00 in0.0 mm 0.00 in0.0 mm
10:25 PM 73.0°F22.8°C 55.9°F13.3°C 55% Calm Calm -- 26.75 in905.9 mb - 0.00 in0.0 mm 0.00 in0.0 mm
10:30 PM 72.6°F22.6°C 56.0°F13.3°C 56% Calm Calm -- 26.75 in905.9 mb - 0.00 in0.0 mm 0.00 in0.0 mm
10:35 PM 72.0°F22.2°C 55.9°F13.3°C 57% Calm Calm -- 26.75 in905.9 mb - 0.00 in0.0 mm 0.00 in0.0 mm
10:40 PM 72.0°F22.2°C 54.9°F12.7°C 55% Calm Calm -- 26.75 in905.9 mb - 0.00 in0.0 mm 0.00 in0.0 mm
10:45 PM 72.0°F22.2°C 56.4°F13.6°C 58% Calm Calm -- 26.75 in905.9 mb - 0.00 in0.0 mm 0.00 in0.0 mm
10:50 PM 72.0°F22.2°C 52.9°F11.6°C 51% Calm Calm -- 26.74 in905.5 mb - 0.00 in0.0 mm 0.00 in0.0 mm
10:55 PM 73.0°F22.8°C 56.4°F13.6°C 56% Calm Calm -- 26.75 in905.9 mb - 0.00 in0.0 mm 0.00 in0.0 mm
11:00 PM 72.0°F22.2°C 53.9°F12.2°C 53% Calm Calm -- 26.75 in905.9 mb - 0.00 in0.0 mm 0.00 in0.0 mm
11:10 PM 72.0°F22.2°C 54.4°F12.4°C 54% Calm Calm -- 26.75 in905.9 mb - 0.00 in0.0 mm 0.00 in0.0 mm
11:15 PM 72.0°F22.2°C 53.9°F12.2°C 53% Calm Calm -- 26.75 in905.9 mb - 0.00 in0.0 mm 0.00 in0.0 mm
11:20 PM 72.0°F22.2°C 53.4°F11.9°C 52% Calm Calm -- 26.75 in905.9 mb - 0.00 in0.0 mm 0.00 in0.0 mm
11:25 PM 72.0°F22.2°C 54.9°F12.7°C 55% Calm Calm -- 26.75 in905.9 mb - 0.00 in0.0 mm 0.00 in0.0 mm
11:30 PM 72.0°F22.2°C 55.9°F13.3°C 57% Calm Calm -- 26.75 in905.9 mb - 0.00 in0.0 mm 0.00 in0.0 mm
11:35 PM 71.0°F21.7°C 54.0°F12.2°C 55% Calm Calm -- 26.75 in905.9 mb - 0.00 in0.0 mm 0.00 in0.0 mm
11:40 PM 72.0°F22.2°C 55.9°F13.3°C 57% Calm Calm -- 26.74 in905.5 mb - 0.00 in0.0 mm 0.00 in0.0 mm
11:45 PM 72.0°F22.2°C 55.4°F13.0°C 56% Calm Calm -- 26.74 in905.5 mb - 0.00 in0.0 mm 0.00 in0.0 mm
11:50 PM 72.0°F22.2°C 54.4°F12.4°C 54% Calm Calm -- 26.74 in905.5 mb - 0.00 in0.0 mm 0.00 in0.0 mm
11:55 PM 72.0°F22.2°C 53.9°F12.2°C 53% Calm Calm -- 26.74 in905.5 mb - 0.00 in0.0 mm 0.00 in0.0 mm